createdAt,value
2023-02-13T00:02:50.076Z,101812.55
2023-02-13T00:06:42.704Z,101812.70
2023-02-13T00:10:08.369Z,101815.52
2023-02-13T00:14:12.152Z,101813.48
2023-02-13T00:17:50.008Z,101810.52
2023-02-13T00:21:59.820Z,101811.89
2023-02-13T00:25:41.387Z,101802.84
2023-02-13T00:29:34.230Z,101803.33
2023-02-13T00:33:52.220Z,101804.86
2023-02-13T00:37:41.271Z,101800.11
2023-02-13T00:41:28.199Z,101799.55
2023-02-13T00:45:13.786Z,101801.79
2023-02-13T00:49:06.819Z,101795.66
2023-02-13T00:52:59.430Z,101792.56
2023-02-13T00:57:02.852Z,101796.09
2023-02-13T01:01:06.658Z,101792.43
2023-02-13T01:05:10.844Z,101788.05
2023-02-13T01:09:13.214Z,101785.26
2023-02-13T01:13:17.443Z,101788.61
2023-02-13T01:17:22.130Z,101782.34
2023-02-13T01:21:26.100Z,101778.67
2023-02-13T01:25:00.415Z,101777.11
2023-02-13T01:29:11.055Z,101779.20
2023-02-13T01:33:13.368Z,101772.25
2023-02-13T01:37:08.269Z,101764.54
2023-02-13T01:40:59.494Z,101755.64
2023-02-13T01:45:01.680Z,101756.83
2023-02-13T01:49:04.757Z,101754.90
2023-02-13T01:52:48.060Z,101760.31
2023-02-13T01:57:04.043Z,101758.54
2023-02-13T02:01:10.945Z,101755.08
2023-02-13T02:05:13.262Z,101756.69
2023-02-13T02:09:16.151Z,101755.46
2023-02-13T02:13:41.286Z,101752.98
2023-02-13T02:17:35.427Z,101750.73
2023-02-13T02:21:14.246Z,101757.02
2023-02-13T02:25:44.029Z,101755.27
2023-02-13T02:30:17.768Z,101750.93
2023-02-13T02:34:19.185Z,101749.16
2023-02-13T02:38:05.636Z,101752.46
2023-02-13T02:42:13.225Z,101743.89
2023-02-13T02:46:20.529Z,101742.70
2023-02-13T02:50:24.641Z,101744.65
2023-02-13T02:54:42.019Z,101740.45
2023-02-13T02:58:54.661Z,101735.37
2023-02-13T03:02:36.255Z,101739.58
2023-02-13T03:06:39.837Z,101736.98
2023-02-13T03:10:37.983Z,101733.47
2023-02-13T03:14:25.584Z,101720.17
2023-02-13T03:18:27.619Z,101722.80
2023-02-13T03:22:11.726Z,101739.95
2023-02-13T03:25:46.014Z,101727.86
2023-02-13T03:30:02.199Z,101734.30
2023-02-13T03:34:15.282Z,101736.40
2023-02-13T03:38:00.859Z,101736.56
2023-02-13T03:41:47.894Z,101738.11
2023-02-13T03:46:14.660Z,101736.01
2023-02-13T03:50:27.875Z,101737.39
2023-02-13T03:54:23.760Z,101735.64
2023-02-13T03:58:18.743Z,101740.86
2023-02-13T04:02:22.484Z,101735.45
2023-02-13T04:06:10.497Z,101734.95
2023-02-13T04:09:35.808Z,101739.48
2023-02-13T04:13:53.898Z,101735.97
2023-02-13T04:18:06.255Z,101734.55
2023-02-13T04:22:09.893Z,101730.88
2023-02-13T04:26:13.514Z,101733.11
2023-02-13T04:30:18.807Z,101730.48
2023-02-13T04:34:21.274Z,101728.36
2023-02-13T04:38:13.622Z,101723.15
2023-02-13T04:42:17.276Z,101717.55
2023-02-13T04:46:29.716Z,101721.06
2023-02-13T04:49:42.769Z,101718.29
2023-02-13T04:53:46.413Z,101722.11
2023-02-13T04:57:08.591Z,101726.15
2023-02-13T05:01:12.307Z,101727.85
2023-02-13T05:05:01.297Z,101739.48
2023-02-13T05:13:11.649Z,101743.60
2023-02-13T05:17:10.453Z,101740.65
2023-02-13T05:21:12.745Z,101742.40
2023-02-13T05:25:16.414Z,101756.42
2023-02-13T05:29:00.215Z,101756.98
2023-02-13T05:32:06.550Z,101761.19
2023-02-13T05:36:10.563Z,101765.04
2023-02-13T05:39:50.402Z,101761.05
2023-02-13T05:43:33.299Z,101761.59
2023-02-13T05:47:25.668Z,101762.11
2023-02-13T05:51:29.274Z,101762.77
2023-02-13T05:55:15.644Z,101768.17
2023-02-13T05:59:05.288Z,101769.89
2023-02-13T06:02:58.686Z,101773.92
2023-02-13T06:06:46.300Z,101780.60
2023-02-13T06:10:50.071Z,101791.81
2023-02-13T06:14:43.490Z,101791.86
2023-02-13T06:18:47.127Z,101794.36
2023-02-13T06:22:50.868Z,101797.52
2023-02-13T06:27:12.928Z,101798.03
2023-02-13T06:30:59.753Z,101800.30
2023-02-13T06:34:57.359Z,101792.11
2023-02-13T06:38:46.009Z,101788.93
2023-02-13T06:42:51.590Z,101793.63
2023-02-13T06:46:37.779Z,101793.45
2023-02-13T06:50:41.573Z,101806.20
2023-02-13T06:54:44.688Z,101811.26
2023-02-13T06:58:34.230Z,101814.38
2023-02-13T07:02:19.513Z,101809.30
2023-02-13T07:06:14.622Z,101815.22
2023-02-13T07:10:03.894Z,101823.98
2023-02-13T07:14:07.521Z,101821.02
2023-02-13T07:18:11.253Z,101822.96
2023-02-13T07:22:07.641Z,101827.52
2023-02-13T07:26:11.312Z,101833.32
2023-02-13T07:29:57.356Z,101834.54
2023-02-13T07:34:00.511Z,101833.69
2023-02-13T07:38:03.356Z,101837.75
2023-02-13T07:42:06.757Z,101841.23
2023-02-13T07:46:00.557Z,101843.34
2023-02-13T07:50:22.350Z,101847.17
2023-02-13T07:54:43.264Z,101855.23
2023-02-13T07:58:40.406Z,101860.65
2023-02-13T08:02:33.102Z,101863.09
2023-02-13T08:06:22.134Z,101873.05
2023-02-13T08:10:52.151Z,101864.84
2023-02-13T08:14:53.868Z,101862.40
2023-02-13T08:18:57.517Z,101859.95
2023-02-13T08:22:43.899Z,101859.95
2023-02-13T08:26:47.614Z,101855.23
2023-02-13T08:30:52.960Z,101854.36
2023-02-13T08:34:56.821Z,101854.13
2023-02-13T08:38:55.769Z,101859.06
2023-02-13T08:42:51.888Z,101852.78
2023-02-13T08:46:48.356Z,101857.50
2023-02-13T08:50:50.623Z,101847.50
2023-02-13T08:54:52.990Z,101849.27
2023-02-13T08:58:56.617Z,101855.92
2023-02-13T09:03:00.860Z,101857.46
2023-02-13T09:07:05.696Z,101862.00
2023-02-13T09:12:34.963Z,101867.06
2023-02-13T11:17:44.304Z,101818.71
2023-02-13T11:27:09.302Z,101821.50
2023-02-13T11:31:10.099Z,101810.48
2023-02-13T11:35:40.630Z,101814.30
2023-02-13T11:39:35.531Z,101821.27
2023-02-13T11:39:44.260Z,101819.45
2023-02-13T11:44:01.684Z,101815.39
2023-02-13T11:47:49.637Z,101808.73
2023-02-13T11:52:02.345Z,101805.08
2023-02-13T11:55:55.845Z,101805.31
2023-02-13T12:00:05.534Z,101807.95
2023-02-13T12:04:21.171Z,101817.79
2023-02-13T12:08:24.795Z,101820.40
2023-02-13T12:12:31.252Z,101821.23
2023-02-13T12:16:17.506Z,101815.76
2023-02-13T12:20:54.960Z,101804.59
2023-02-13T12:42:58.184Z,101783.27
2023-02-13T12:47:24.306Z,101784.52
2023-02-13T12:52:03.684Z,101793.77
2023-02-13T13:02:38.949Z,101765.64
2023-02-13T13:06:34.228Z,101779.64
2023-02-13T13:16:06.564Z,101782.50
2023-02-13T14:10:07.192Z,101747.15
2023-02-13T14:14:15.074Z,101741.69
2023-02-13T14:18:11.669Z,101731.23
2023-02-13T14:22:15.929Z,101732.02
2023-02-13T14:26:08.307Z,101716.36
2023-02-13T14:30:11.817Z,101708.98
2023-02-13T14:34:20.360Z,101717.11
2023-02-13T14:38:29.968Z,101707.02
2023-02-13T14:42:45.732Z,101706.92
2023-02-13T14:46:38.289Z,101723.20
2023-02-13T14:50:19.730Z,101720.44
2023-02-13T14:54:26.296Z,101709.21
2023-02-13T14:58:30.103Z,101693.17
2023-02-13T15:02:35.147Z,101683.95
2023-02-13T15:06:24.104Z,101687.52
2023-02-13T15:10:39.716Z,101688.41
2023-02-13T15:14:45.401Z,101688.07
2023-02-13T15:18:49.067Z,101688.27
2023-02-13T15:23:03.857Z,101702.64
2023-02-13T15:27:07.966Z,101701.42
2023-02-13T15:31:25.270Z,101690.94
2023-02-13T15:35:06.908Z,101673.27
2023-02-13T15:39:25.708Z,101664.52
2023-02-13T15:43:20.250Z,101665.29
2023-02-13T15:47:23.114Z,101667.77
2023-02-13T15:51:31.586Z,101685.62
2023-02-13T15:55:31.785Z,101667.60
2023-02-13T15:59:34.461Z,101667.95
2023-02-13T16:03:38.635Z,101671.98
2023-02-13T16:07:38.077Z,101670.98
2023-02-13T16:11:53.619Z,101661.87
2023-02-13T16:15:46.569Z,101674.64
2023-02-13T16:20:03.391Z,101683.95
2023-02-13T16:24:07.071Z,101692.02
2023-02-13T16:28:13.889Z,101692.89
2023-02-13T16:32:13.379Z,101682.38
2023-02-13T16:36:21.070Z,101676.06
2023-02-13T16:40:29.442Z,101683.09
2023-02-13T16:44:35.873Z,101685.02
2023-02-13T16:48:30.252Z,101691.08
2023-02-13T16:52:37.379Z,101686.70
2023-02-13T16:56:47.033Z,101685.50
2023-02-13T17:00:56.712Z,101695.30
2023-02-13T17:05:00.646Z,101694.44
2023-02-13T17:09:05.702Z,101695.14
2023-02-13T17:13:16.878Z,101699.51
2023-02-13T17:17:34.825Z,101701.25
2023-02-13T17:21:46.395Z,101692.50
2023-02-13T17:25:50.208Z,101707.58
2023-02-13T17:39:07.339Z,101704.66
2023-02-13T17:43:14.119Z,101695.37
2023-02-13T17:47:32.600Z,101691.76
2023-02-13T17:51:35.311Z,101697.82
2023-02-13T18:04:35.081Z,101696.96
2023-02-13T18:08:38.447Z,101700.48
2023-02-13T18:12:42.081Z,101707.10
2023-02-13T18:16:34.608Z,101702.02
2023-02-13T18:20:31.397Z,101698.91
2023-02-13T18:24:34.217Z,101700.89
2023-02-13T18:28:42.834Z,101694.08
2023-02-13T18:32:49.960Z,101695.81
2023-02-13T18:36:53.525Z,101697.95
2023-02-13T18:40:57.945Z,101700.08
2023-02-13T18:45:00.511Z,101694.48
2023-02-13T18:49:11.016Z,101704.31
2023-02-13T18:53:07.563Z,101695.98
2023-02-13T18:57:09.848Z,101703.31
2023-02-13T19:01:14.550Z,101700.34
2023-02-13T19:05:03.221Z,101704.00
2023-02-13T19:08:59.383Z,101699.66
2023-02-13T19:13:02.554Z,101700.57
2023-02-13T19:17:06.219Z,101702.14
2023-02-13T19:21:09.936Z,101701.24
2023-02-13T19:25:12.584Z,101714.22
2023-02-13T19:29:09.311Z,101714.75
2023-02-13T19:33:04.178Z,101724.02
2023-02-13T19:37:25.233Z,101725.61
2023-02-13T19:41:29.598Z,101729.10
2023-02-13T19:45:33.342Z,101734.30
2023-02-13T19:49:33.022Z,101745.14
2023-02-13T19:53:36.343Z,101748.30
2023-02-13T19:57:40.340Z,101754.60
2023-02-13T20:01:45.902Z,101755.14
2023-02-13T20:05:51.653Z,101760.38
2023-02-13T20:09:58.602Z,101765.31
2023-02-13T20:14:02.841Z,101762.04
2023-02-13T20:18:00.923Z,101764.65
2023-02-13T20:22:04.682Z,101770.08
2023-02-13T20:26:08.354Z,101763.42
2023-02-13T20:30:12.037Z,101770.06
2023-02-13T20:34:10.074Z,101772.34
2023-02-13T20:38:13.702Z,101774.23
2023-02-13T20:42:10.806Z,101776.52
2023-02-13T20:46:23.495Z,101780.23
2023-02-13T20:50:27.219Z,101777.94
2023-02-13T20:54:30.857Z,101782.29
2023-02-13T20:58:33.055Z,101791.19
2023-02-13T21:02:35.787Z,101803.44
2023-02-13T21:06:36.482Z,101812.70
2023-02-13T21:10:40.094Z,101821.98
2023-02-13T21:14:43.859Z,101821.98
2023-02-13T21:18:47.228Z,101825.13
2023-02-13T21:22:50.225Z,101826.50
2023-02-13T21:26:37.716Z,101825.63
2023-02-13T21:30:41.329Z,101822.31
2023-02-13T21:34:45.582Z,101823.20
2023-02-13T21:38:49.190Z,101821.28
2023-02-13T21:42:43.909Z,101817.62
2023-02-13T21:46:46.448Z,101815.05
2023-02-13T21:50:49.147Z,101830.06
2023-02-13T21:54:56.059Z,101838.46
2023-02-13T21:58:52.917Z,101827.14
2023-02-13T22:02:56.562Z,101827.33
2023-02-13T22:06:57.850Z,101828.40
2023-02-13T22:11:00.469Z,101820.70
2023-02-13T22:15:02.237Z,101815.98
2023-02-13T22:19:08.393Z,101820.51
2023-02-13T22:23:12.299Z,101826.30
2023-02-13T22:27:21.144Z,101825.07
2023-02-13T22:31:25.956Z,101827.51
2023-02-13T22:35:31.004Z,101830.13
2023-02-13T22:39:28.500Z,101825.06
2023-02-13T22:43:32.136Z,101822.27
2023-02-13T22:47:36.324Z,101817.72
2023-02-13T22:51:39.868Z,101816.67
2023-02-13T22:55:26.210Z,101817.90
2023-02-13T22:59:29.852Z,101820.88
2023-02-13T23:03:32.225Z,101825.94
2023-02-13T23:07:39.634Z,101827.34
2023-02-13T23:11:33.320Z,101823.30
2023-02-13T23:15:44.299Z,101830.13
2023-02-13T23:19:49.655Z,101832.73
2023-02-13T23:24:00.163Z,101829.08
2023-02-13T23:28:03.758Z,101838.16
2023-02-13T23:32:19.404Z,101832.23
2023-02-13T23:36:23.093Z,101842.02
2023-02-13T23:40:26.800Z,101836.77
2023-02-13T23:44:10.205Z,101835.36
2023-02-13T23:48:05.048Z,101832.07
2023-02-13T23:52:08.561Z,101828.73
2023-02-13T23:56:12.169Z,101828.40
